• Join FlightAware (Why Join?)
  • Login
  • US Flag 
12:46PM EST


 

Airport Tracker/Info


-or-


 

Live Flight TrackerFlight Track Log ✈ SKW4720 ✈ 24-Apr-2012 ✈ KLAX - KSFO

Flight Track Log - Related Links

Times and Time Zones

All times are in EDT time to prevent confusion due to time zone crossing. See the SKW4720 flight status page for this flight to view local times or setup timezone preferences in your user account.

Time Position Orientation Groundspeed Altitude Reporting Facility
EDT Latitude Longitude Course Direction KTS MPH feet Rate Location/Type
04:08PM 33.9333 -118.5000 256° West 225 259 4,300  Level Southern California TRACON
04:09PM 33.9167 -118.5833 263° West 253 291 7,800 3,000 Climbing Southern California TRACON
04:10PM 33.9061 -118.6892 261° West 297 342 10,900 2,820 Climbing Los Angeles Center
04:11PM 33.8936 -118.7864 266° West 297 342 14,000 3,060 Climbing Los Angeles Center
04:12PM 33.8872 -118.8911 305° West 307 353 17,100 2,640 Climbing Los Angeles Center
04:13PM 33.9453 -118.9908 313° West 307 353 19,300 1,980 Climbing Los Angeles Center
04:14PM 34.0142 -119.0808 310° West 327 376 21,100 1,860 Climbing Los Angeles Center
04:15PM 34.0847 -119.1811 310° West 358 412 23,100 1,980 Climbing Los Angeles Center
04:16PM 34.1572 -119.2842 312° West 385 443 25,100 2,100 Climbing Los Angeles Center
04:17PM 34.2317 -119.3850 310° West 398 458 27,300 2,100 Climbing Los Angeles Center
04:18PM 34.3061 -119.4908 311° West 404 465 29,400 1,860 Climbing Los Angeles Center
04:19PM 34.3725 -119.5842 309° West 409 471 31,100 2,100 Climbing Los Angeles Center
04:20PM 34.4425 -119.6878 311° West 409 471 33,700 2,340 Climbing Los Angeles Center
04:21PM 34.5125 -119.7842 318° Northwest 402 463 35,800 1,380 Climbing Los Angeles Center
04:22PM 34.5956 -119.8736 322° Northwest 394 453 36,500 600 Climbing Los Angeles Center
04:23PM 34.6847 -119.9583 317° Northwest 399 459 37,100 720 Climbing Los Angeles Center
04:24PM 34.7714 -120.0561 318° Northwest 410 472 38,000 420 Climbing Los Angeles Center
04:25PM 34.8639 -120.1567 318° Northwest 429 494 38,000  Level Los Angeles Center
04:26PM 34.9586 -120.2600 317° Northwest 450 518 38,000  Level Los Angeles Center
04:28PM 35.1231 -120.4456 317° Northwest 430 495 38,000  Level Oakland Center
04:29PM 35.2089 -120.5442 318° Northwest 423 487 38,000 -60 Level Oakland Center
04:30PM 35.2969 -120.6428 317° Northwest 423 487 37,900  Descending Oakland Center
04:31PM 35.3825 -120.7394 319° Northwest 423 487 38,000  Climbing Oakland Center
04:32PM 35.4600 -120.8233 317° Northwest 423 487 38,000  Level Oakland Center
04:33PM 35.5433 -120.9175 319° Northwest 423 487 38,000  Level Oakland Center
04:34PM 35.6289 -121.0094 316° Northwest 423 487 38,000 -60 Level Oakland Center
04:35PM 35.7122 -121.1092 318° Northwest 418 481 37,900  Descending Oakland Center
04:36PM 35.7978 -121.2039 317° Northwest 418 481 38,000  Climbing Oakland Center
04:37PM 35.8831 -121.3017 317° Northwest 418 481 38,000 -360 Level Oakland Center
04:38PM 35.9703 -121.4019 318° Northwest 423 487 37,300 -1,740 Descending Oakland Center
04:39PM 36.0594 -121.5000 316° Northwest 423 487 34,600 -2,700 Descending Oakland Center
04:40PM 36.1425 -121.5983 321° Northwest 423 487 32,000 -2,700 Descending Oakland Center
04:41PM 36.2339 -121.6892 325° Northwest 423 487 29,200 -2,820 Descending Oakland Center
04:42PM 36.3314 -121.7728 324° Northwest 423 487 26,400 -3,000 Descending Oakland Center
04:43PM 36.4328 -121.8639 341° North 416 479 23,300 -2,760 Descending Oakland Center
04:44PM 36.5408 -121.9092 346° North 400 460 21,000 -1,680 Descending Oakland Center
04:45PM 36.6469 -121.9417 355° North 400 460 20,000 -1,020 Descending Oakland Center
04:45PM 36.7167 -121.9500 345° North 375 432 19,400 -1,860 Descending Northern Cal TRACON
04:46PM 36.8167 -121.9833 345° North 373 429 17,000 -2,580 Descending Northern Cal TRACON
04:47PM 36.9167 -122.0167 352° North 372 428 14,300 -2,460 Descending Northern Cal TRACON
04:48PM 37.0167 -122.0333 345° North 362 417 12,100 -1,680 Descending Northern Cal TRACON
04:49PM 37.1167 -122.0667 345° North 301 346 11,000 -1,080 Descending Northern Cal TRACON
04:50PM 37.1667 -122.0833 351° North 257 296 10,100 -540 Descending Northern Cal TRACON
04:51PM 37.2500 -122.1000 349° North 262 302 10,000 -600 Descending Northern Cal TRACON
04:52PM 37.3167 -122.1167 360° North 259 298 8,900 -1,380 Descending Northern Cal TRACON
04:53PM 37.4000 -122.1167 360° North 248 285 7,300 -1,740 Descending Northern Cal TRACON
04:54PM 37.4500 -122.1167 332° Northwest 229 264 5,500 -1,500 Descending Northern Cal TRACON
04:55PM 37.5000 -122.1500 322° Northwest 197 227 4,300 -1,260 Descending Northern Cal TRACON
04:56PM 37.5500 -122.2000 288° West 196 226 3,100 -1,260 Descending Northern Cal TRACON
04:57PM 37.5667 -122.2667 293° West 188 216 1,800 -1,080 Descending Northern Cal TRACON
04:58PM 37.5833 -122.3167 302° West 141 162 900 -840 Descending Northern Cal TRACON
04:59PM 37.6000 -122.3500 302° West 128 147 300 -720 Descending Northern Cal TRACON